Seaspan Protector — CFN6635 — position and weather

sailwx.info

Track history (hours):
 
Tides and Currents Weather Stations Pressure Air Temp Water Temp Dewpoint Dewpoint Depression Visibility Wind Speed Wind Dir Waves Ship Positions

Seaspan Protector

Last reported at 2018-Apr-24 12:30 UTC. Time now 2018-Apr-24 12:49 UTC.
Position N 50°51' W 127°12'.

Length 22 m; draft 3.2 m.

Type: Towing. MMSI: 316003677.

Date/timePositionNaut miles runAvg speedWind from/ knotsBaromVisibWave heightAir tempDewpointWater temp
2018-Apr-24 12:30N 50°51' W 127°12'1 2.7
2018-Apr-24 11:59N 50°51' W 127°14'1 2.8
2018-Apr-24 11:30N 50°52' W 127°16'1 2.9
2018-Apr-24 10:59N 50°52' W 127°19'1 2.7
2018-Apr-24 10:28N 50°53' W 127°21'1 1.9
2018-Apr-24 10:00N 50°52' W 127°22'2 3.7
2018-Apr-24 09:29N 50°50' W 127°20'2 3.6
2018-Apr-24 09:00N 50°49' W 127°17'2 3.5
2018-Apr-24 08:29N 50°49' W 127°15'1 3.1
2018-Apr-24 08:00N 50°50' W 127°13'1 2.8
2018-Apr-24 07:29N 50°51' W 127°15'1 2.1
2018-Apr-24 07:00N 50°51' W 127°16'1 1.8
2018-Apr-24 06:30N 50°52' W 127°16'2 3.2
2018-Apr-24 05:58N 50°53' W 127°19'2 3.5
2018-Apr-24 05:26N 50°53' W 127°22'2 4.4
2018-Apr-24 05:00N 50°54' W 127°24'2 4.8
2018-Apr-24 04:30N 50°56' W 127°27'2 4.1
2018-Apr-24 04:00N 50°57' W 127°29'2 4.5
2018-Apr-24 03:30N 50°59' W 127°32'3 4.9
2018-Apr-24 02:59N 51°00' W 127°36'2 5.0
2018-Apr-24 02:30N 51°02' W 127°38'3 5.4
2018-Apr-24 02:00N 51°03' W 127°42'2 4.7
2018-Apr-24 01:30N 51°05' W 127°44'2 4.1
2018-Apr-24 01:00N 51°07' W 127°46'1 2.6
2018-Apr-24 00:30N 51°08' W 127°48'2 4.2
2018-Apr-24 00:00N 51°06' W 127°45'3 6.6
2018-Apr-23 23:30N 51°04' W 127°41'3 6.1
2018-Apr-23 23:00N 51°02' W 127°38'3 6.6
2018-Apr-23 22:30N 50°59' W 127°35'3 6.7
2018-Apr-23 22:00N 50°58' W 127°30'3 6.8
2018-Apr-23 21:30N 50°56' W 127°26'4 7.1
2018-Apr-23 21:00N 50°53' W 127°22'4 7.0
2018-Apr-23 20:29N 50°51' W 127°17'3 6.9
2018-Apr-23 20:00N 50°48' W 127°14'4 7.2
2018-Apr-23 19:28N 50°46' W 127°09'13 7.4
2018-Apr-23 17:43N 50°40' W 126°51'2 6.5
2018-Apr-23 17:25N 50°39' W 126°48'2 4.7
2018-Apr-23 16:58N 50°37' W 126°46'10 6.5
2018-Apr-23 15:29N 50°31' W 126°35'4 7.1
2018-Apr-23 14:59N 50°30' W 126°29'41 7.8
2018-Apr-23 09:43N 50°20' W 125°27'1 6.1
2018-Apr-23 09:29N 50°19' W 125°25'4 7.6
2018-Apr-23 08:57N 50°16' W 125°23'3 7.1
2018-Apr-23 08:28N 50°12' W 125°22'3 6.9
2018-Apr-23 07:59N 50°09' W 125°21'3 6.6
2018-Apr-23 07:30N 50°07' W 125°18'3 5.2
2018-Apr-23 07:00N 50°05' W 125°15'2 4.6
2018-Apr-23 06:30N 50°03' W 125°14'2 4.1
2018-Apr-23 06:00N 50°01' W 125°12'1 2.0
2018-Apr-23 05:30N 49°60' W 125°12'3 5.1
2018-Apr-23 05:00N 49°58' W 125°09'2 4.3
2018-Apr-23 04:28N 49°57' W 125°06'2 3.9
2018-Apr-23 04:00N 49°56' W 125°04'2 3.1
2018-Apr-23 03:28N 49°55' W 125°02'2 3.1
2018-Apr-23 02:55N 49°54' W 124°60'1 3.4
2018-Apr-23 02:29N 49°53' W 124°58'2 3.3
2018-Apr-23 01:57N 49°52' W 124°55'2 3.4
2018-Apr-23 01:30N 49°51' W 124°53'2 3.3
2018-Apr-23 01:00N 49°51' W 124°51'2 3.2
2018-Apr-23 00:30N 49°51' W 124°48'2 2.9
2018-Apr-22 23:56N 49°50' W 124°46'1 2.8
2018-Apr-22 23:30N 49°50' W 124°44'1 2.9
2018-Apr-22 23:00N 49°50' W 124°42'2 3.2
2018-Apr-22 22:29N 49°49' W 124°39'2 4.1
2018-Apr-22 21:59N 49°49' W 124°36'4 5.7
2018-Apr-22 21:20N 49°47' W 124°31'3 7.2
2018-Apr-22 20:59N 49°46' W 124°28'2 5.0
2018-Apr-22 20:29N 49°44' W 124°25'2 3.9
2018-Apr-22 19:57N 49°43' W 124°22'2 3.9
2018-Apr-22 19:28N 49°42' W 124°20'2 4.4
2018-Apr-22 19:00N 49°41' W 124°17'5 6.2
2018-Apr-22 18:09N 49°37' W 124°12'2 6.5
2018-Apr-22 17:55N 49°36' W 124°11'10 6.0
2018-Apr-22 16:14N 49°28' W 124°01'2 6.0
2018-Apr-22 15:53N 49°26' W 123°58'10 6.1
2018-Apr-22 14:17N 49°20' W 123°47'2 5.7
2018-Apr-22 13:58N 49°19' W 123°44'3 5.4
2018-Apr-22 13:29N 49°17' W 123°41'9 5.1
2018-Apr-22 11:43N 49°12' W 123°30'2 4.7
2018-Apr-22 11:20N 49°11' W 123°28'2 4.8
2018-Apr-22 10:53N 49°10' W 123°26'5 5.0
2018-Apr-22 09:55N 49°06' W 123°20'4 5.3
2018-Apr-22 09:12N 49°08' W 123°15'2 4.6
2018-Apr-22 08:51N 49°07' W 123°12'2 4.7
2018-Apr-22 08:26N 49°07' W 123°10'2 4.4
2018-Apr-22 08:00N 49°07' W 123°07'2 4.4
2018-Apr-22 07:30N 49°08' W 123°04'2 4.1
2018-Apr-22 07:00N 49°09' W 123°01'2 4.2
2018-Apr-22 06:30N 49°09' W 122°58'0 0.3
2018-Apr-22 06:00N 49°10' W 122°58'0 0.0
2018-Apr-22 05:30N 49°10' W 122°58'0 0.1
2018-Apr-22 04:58N 49°09' W 122°58'0 0.2
2018-Apr-22 04:30N 49°10' W 122°58'0 0.0
2018-Apr-22 03:58N 49°10' W 122°58'2 3.5
2018-Apr-22 03:30N 49°10' W 122°56'0 0.3
2018-Apr-22 03:00N 49°10' W 122°55'0 0.0
2018-Apr-22 02:30N 49°10' W 122°55'2 3.7
2018-Apr-22 01:59N 49°09' W 122°58'3 6.9
2018-Apr-22 01:30N 49°08' W 123°03'3 5.2
2018-Apr-22 00:58N 49°07' W 123°07'3 6.1
2018-Apr-22 00:30N 49°07' W 123°11'1 1.0
2018-Apr-21 23:57N 49°07' W 123°11'0 0.0
2018-Apr-21 23:30N 49°07' W 123°11'0 0.0
2018-Apr-21 22:59N 49°07' W 123°11'0 0.0
2018-Apr-21 22:29N 49°07' W 123°11'4 9.3
2018-Apr-21 22:00N 49°07' W 123°05'611.7
2018-Apr-21 21:30N 49°10' W 122°56'1 1.6
2018-Apr-21 21:00N 49°10' W 122°55'0 0.0
2018-Apr-21 20:30N 49°10' W 122°55'0 0.0
2018-Apr-21 19:58N 49°10' W 122°55'0 0.0
2018-Apr-21 19:30N 49°10' W 122°55'0 0.0
2018-Apr-21 19:00N 49°10' W 122°55'0 0.0
2018-Apr-21 18:30N 49°10' W 122°55'0 0.0
2018-Apr-21 18:00N 49°10' W 122°55'0 0.0
2018-Apr-21 17:30N 49°10' W 122°55'0 0.0
2018-Apr-21 17:00N 49°10' W 122°55'0 0.0
2018-Apr-21 16:30N 49°10' W 122°55'0 0.0
2018-Apr-21 16:00N 49°10' W 122°55'0 0.0
2018-Apr-21 15:30N 49°10' W 122°55'0 0.0
2018-Apr-21 14:59N 49°10' W 122°55'0 0.0
2018-Apr-21 14:30N 49°10' W 122°55'0 0.0
2018-Apr-21 13:53N 49°10' W 122°55'0 0.0
2018-Apr-21 13:30N 49°10' W 122°55'0 0.0
2018-Apr-21 13:00N 49°10' W 122°55'0 0.0
2018-Apr-21 12:30N 49°10' W 122°55'0 0.0
2018-Apr-21 12:00N 49°10' W 122°55'0 0.0
2018-Apr-21 11:30N 49°10' W 122°55'0 0.0
2018-Apr-21 10:59N 49°10' W 122°55'0 0.0
2018-Apr-21 10:30N 49°10' W 122°55'0 0.0
2018-Apr-21 10:00N 49°10' W 122°55'0 0.0
2018-Apr-21 09:30N 49°10' W 122°55'0 0.0
2018-Apr-21 08:58N 49°10' W 122°55'0 0.0
2018-Apr-21 08:30N 49°10' W 122°55'0 0.0
2018-Apr-21 08:00N 49°10' W 122°55'0 0.0
2018-Apr-21 07:30N 49°10' W 122°55'0 0.0
2018-Apr-21 07:00N 49°10' W 122°55'0 0.0
2018-Apr-21 06:28N 49°10' W 122°55'0 0.0
2018-Apr-21 06:00N 49°10' W 122°55'0 0.0
2018-Apr-21 05:30N 49°10' W 122°55'0 0.0
2018-Apr-21 05:00N 49°10' W 122°55'0 0.0
2018-Apr-21 04:30N 49°10' W 122°55'0 0.0
2018-Apr-21 03:58N 49°10' W 122°55'0 0.0
2018-Apr-21 03:30N 49°10' W 122°55'0 0.0
2018-Apr-21 02:58N 49°10' W 122°55'0 0.0
2018-Apr-21 02:30N 49°10' W 122°55'0 0.0
2018-Apr-21 02:00N 49°10' W 122°55'0 0.0
2018-Apr-21 01:30N 49°10' W 122°55'0 0.0
2018-Apr-21 01:00N 49°10' W 122°55'0 0.0
2018-Apr-21 00:30N 49°10' W 122°55'0 0.0
2018-Apr-21 00:00N 49°10' W 122°55'0 0.0
2018-Apr-20 23:30N 49°10' W 122°55'0 0.0
2018-Apr-20 23:00N 49°10' W 122°55'0 0.0
2018-Apr-20 22:30N 49°10' W 122°55'0 0.0
2018-Apr-20 21:59N 49°10' W 122°55'0 0.0
2018-Apr-20 21:30N 49°10' W 122°55'0 0.0
2018-Apr-20 21:00N 49°10' W 122°55'0 0.0
2018-Apr-20 20:30N 49°10' W 122°55'0 0.0
2018-Apr-20 20:00N 49°10' W 122°55'0 0.0
2018-Apr-20 19:30N 49°10' W 122°55'0 0.0
2018-Apr-20 19:00N 49°10' W 122°55'0 0.0
2018-Apr-20 18:30N 49°10' W 122°55'0 0.0
2018-Apr-20 18:00N 49°10' W 122°55'0 0.0
2018-Apr-20 17:30N 49°10' W 122°55'0 0.0
2018-Apr-20 17:00N 49°10' W 122°55'0 0.0
2018-Apr-20 16:30N 49°10' W 122°55'0 0.0
2018-Apr-20 16:00N 49°10' W 122°55'0 0.0
2018-Apr-20 15:30N 49°10' W 122°55'0 0.0
2018-Apr-20 15:00N 49°10' W 122°55'0 0.0
2018-Apr-20 14:30N 49°10' W 122°55'0 0.0
2018-Apr-20 14:00N 49°10' W 122°55'0 0.0
2018-Apr-20 13:30N 49°10' W 122°55'0 0.0
2018-Apr-20 12:57N 49°10' W 122°55'0 0.0
2018-Apr-20 12:30N 49°10' W 122°55'0 0.0
2018-Apr-20 12:00N 49°10' W 122°55'0 0.0
2018-Apr-20 11:30N 49°10' W 122°55'0 0.0
2018-Apr-20 11:00N 49°10' W 122°55'0 0.0
2018-Apr-20 10:30N 49°10' W 122°55'0 0.0
2018-Apr-20 10:00N 49°10' W 122°55'0 0.0
2018-Apr-20 09:30N 49°10' W 122°55'0 0.0
2018-Apr-20 09:00N 49°10' W 122°55'0 0.0
2018-Apr-20 08:30N 49°10' W 122°55'0 0.0
2018-Apr-20 08:00N 49°10' W 122°55'0 0.1
2018-Apr-20 07:30N 49°10' W 122°55'0 0.1
2018-Apr-20 07:00N 49°10' W 122°55'0 0.0
2018-Apr-20 06:30N 49°10' W 122°55'0 0.0
2018-Apr-20 06:00N 49°10' W 122°55'0 0.0
2018-Apr-20 05:30N 49°10' W 122°55'0 0.0
2018-Apr-20 04:59N 49°10' W 122°55'0 0.0
2018-Apr-20 04:30N 49°10' W 122°55'0 0.0
2018-Apr-20 04:00N 49°10' W 122°55'0 0.0
2018-Apr-20 03:30N 49°10' W 122°55'0 0.0
2018-Apr-20 03:00N 49°10' W 122°55'0 0.0
2018-Apr-20 02:30N 49°10' W 122°55'0 0.0
2018-Apr-20 02:00N 49°10' W 122°55'0 0.0
2018-Apr-20 01:30N 49°10' W 122°55'0 0.0
2018-Apr-20 01:00N 49°10' W 122°55'0 0.0
2018-Apr-20 00:30N 49°10' W 122°55'0 0.0
2018-Apr-20 00:00N 49°10' W 122°55'0 0.0
2018-Apr-19 23:30N 49°10' W 122°55'0 0.0
2018-Apr-19 23:00N 49°10' W 122°55'0 0.0
2018-Apr-19 22:30N 49°10' W 122°55'0 0.0
2018-Apr-19 22:00N 49°10' W 122°55'0 0.0
2018-Apr-19 21:28N 49°10' W 122°55'0 0.0
2018-Apr-19 21:00N 49°10' W 122°55'0 0.0
2018-Apr-19 20:30N 49°10' W 122°55'0 0.0
2018-Apr-19 20:00N 49°10' W 122°55'0 0.0
2018-Apr-19 19:30N 49°10' W 122°55'0 0.0
2018-Apr-19 19:00N 49°10' W 122°55'0 0.0
2018-Apr-19 18:30N 49°10' W 122°55'0 0.0
2018-Apr-19 17:58N 49°10' W 122°55'0 0.0
2018-Apr-19 17:30N 49°10' W 122°55'0 0.0
2018-Apr-19 17:00N 49°10' W 122°55'0 0.0
2018-Apr-19 16:28N 49°10' W 122°55'0 0.0
2018-Apr-19 15:59N 49°10' W 122°55'0 0.0
2018-Apr-19 15:30N 49°10' W 122°55'0 0.0
2018-Apr-19 15:00N 49°10' W 122°55'0 0.0
2018-Apr-19 14:30N 49°10' W 122°55'0 0.0
2018-Apr-19 14:00N 49°10' W 122°55'0 0.0
2018-Apr-19 13:30N 49°10' W 122°55'0 0.0
2018-Apr-19 13:00N 49°10' W 122°55'0 0.0
2018-Apr-19 12:30N 49°10' W 122°55'0 0.0
2018-Apr-19 12:00N 49°10' W 122°55'0 0.0
2018-Apr-19 11:30N 49°10' W 122°55'0 0.0
2018-Apr-19 11:00N 49°10' W 122°55'0 0.0
2018-Apr-19 10:30N 49°10' W 122°55'0 0.0
2018-Apr-19 09:59N 49°10' W 122°55'0 0.0
2018-Apr-19 09:30N 49°10' W 122°55'0 0.0
2018-Apr-19 09:00N 49°10' W 122°55'0 0.0
2018-Apr-19 08:30N 49°10' W 122°55'0 0.0
2018-Apr-19 08:00N 49°10' W 122°55'0 0.0
2018-Apr-19 07:30N 49°10' W 122°55'0 0.0
2018-Apr-19 07:00N 49°10' W 122°55'0 0.0
2018-Apr-19 06:28N 49°10' W 122°55'0 0.0
2018-Apr-19 06:00N 49°10' W 122°55'0 0.0
2018-Apr-19 05:30N 49°10' W 122°55'0 0.0
2018-Apr-19 05:00N 49°10' W 122°55'0 0.0
2018-Apr-19 04:30N 49°10' W 122°55'0 0.0
2018-Apr-19 04:00N 49°10' W 122°55'0 0.0
2018-Apr-19 03:30N 49°10' W 122°55'0 0.0
2018-Apr-19 03:00N 49°10' W 122°55'0 0.0
2018-Apr-19 02:30N 49°10' W 122°55'0 0.0
2018-Apr-19 02:00N 49°10' W 122°55'0 0.0
2018-Apr-19 01:30N 49°10' W 122°55'0 0.0
2018-Apr-19 01:00N 49°10' W 122°55'0 0.0
2018-Apr-19 00:30N 49°10' W 122°55'0 0.0
2018-Apr-19 00:00N 49°10' W 122°55'0 0.0
2018-Apr-18 23:30N 49°10' W 122°55'0 0.0
2018-Apr-18 23:00N 49°10' W 122°55'0 0.0
2018-Apr-18 22:30N 49°10' W 122°55'0 0.0
2018-Apr-18 22:00N 49°10' W 122°55'0 0.0
2018-Apr-18 21:30N 49°10' W 122°55'0 0.0
2018-Apr-18 21:00N 49°10' W 122°55'0 0.1
2018-Apr-18 20:30N 49°10' W 122°55'0 0.1
2018-Apr-18 20:00N 49°10' W 122°55'0 0.0
2018-Apr-18 19:30N 49°10' W 122°55'0 0.0
2018-Apr-18 19:00N 49°10' W 122°55'0 0.0
2018-Apr-18 18:30N 49°10' W 122°55'0 0.0
2018-Apr-18 18:00N 49°10' W 122°55'0 0.0
2018-Apr-18 17:28N 49°10' W 122°55'0 0.0
2018-Apr-18 17:00N 49°10' W 122°55'0 0.0
2018-Apr-18 16:30N 49°10' W 122°55'0 0.0
2018-Apr-18 16:00N 49°10' W 122°55'0 0.0
2018-Apr-18 15:30N 49°10' W 122°55'0 0.0
2018-Apr-18 15:00N 49°10' W 122°55'0 0.0
2018-Apr-18 14:30N 49°10' W 122°55'0 0.0
2018-Apr-18 14:00N 49°10' W 122°55'0 0.0
2018-Apr-18 13:30N 49°10' W 122°55'0 0.0
2018-Apr-18 12:58N 49°10' W 122°55'0 0.0
2018-Apr-18 12:30N 49°10' W 122°55'0 0.0
2018-Apr-18 12:00N 49°10' W 122°55'0 0.0
2018-Apr-18 11:30N 49°10' W 122°55'0 0.0
2018-Apr-18 11:00N 49°10' W 122°55'0 0.0
2018-Apr-18 10:30N 49°10' W 122°55'0 0.0
2018-Apr-18 10:00N 49°10' W 122°55'0 0.0
2018-Apr-18 09:30N 49°10' W 122°55'0 0.0
2018-Apr-18 09:00N 49°10' W 122°55'0 0.0
2018-Apr-18 08:30N 49°10' W 122°55'0 0.0
2018-Apr-18 08:00N 49°10' W 122°55'0 0.0
2018-Apr-18 07:30N 49°10' W 122°55'0 0.0
2018-Apr-18 07:00N 49°10' W 122°55'0 0.0
2018-Apr-18 06:30N 49°10' W 122°55'0 0.0
2018-Apr-18 05:59N 49°10' W 122°55'0 0.0
2018-Apr-18 05:30N 49°10' W 122°55'0 0.0
2018-Apr-18 05:00N 49°10' W 122°55'0 0.0
2018-Apr-18 04:30N 49°10' W 122°55'1 2.2
2018-Apr-18 04:00N 49°10' W 122°57'0 0.0
2018-Apr-18 03:30N 49°10' W 122°57'0 0.0
2018-Apr-18 03:00N 49°10' W 122°57'0 0.0
2018-Apr-18 02:30N 49°10' W 122°57'0 0.4
2018-Apr-18 02:00N 49°09' W 122°57'3 5.7
2018-Apr-18 01:31N 49°09' W 123°01'3 5.1
2018-Apr-18 01:00N 49°07' W 123°04'2 5.0
2018-Apr-18 00:30N 49°06' W 123°08'3 5.4
2018-Apr-18 00:00N 49°07' W 123°12'3 6.7
2018-Apr-17 23:30N 49°07' W 123°17'3 6.6
2018-Apr-17 23:00N 49°06' W 123°22'3 6.6
2018-Apr-17 22:30N 49°08' W 123°26'4 7.6
2018-Apr-17 21:59N 49°09' W 123°32'4 8.2
2018-Apr-17 21:30N 49°11' W 123°38'1 0.1
2018-Apr-17 10:48N 49°11' W 123°36'8 3.8
2018-Apr-17 08:41N 49°08' W 123°25'2 4.0
2018-Apr-17 08:11N 49°07' W 123°23'1 4.7
2018-Apr-17 08:00N 49°06' W 123°21'3 5.1
2018-Apr-17 07:30N 49°06' W 123°18'4 8.7
2018-Apr-17 07:00N 49°07' W 123°11'5 9.1
2018-Apr-17 06:30N 49°08' W 123°04'4 8.1
2018-Apr-17 06:00N 49°09' W 122°58'1 2.1
2018-Apr-17 05:30N 49°10' W 122°57'0 0.0
2018-Apr-17 05:00N 49°10' W 122°57'0 0.0
2018-Apr-17 04:30N 49°10' W 122°57'0 0.0
2018-Apr-17 04:00N 49°10' W 122°57'0 0.0
2018-Apr-17 03:30N 49°10' W 122°57'1 1.2
2018-Apr-17 03:00N 49°09' W 122°58'1 1.2
2018-Apr-17 02:30N 49°09' W 122°57'0 0.3
2018-Apr-17 02:00N 49°10' W 122°57'1 2.2
2018-Apr-17 01:30N 49°10' W 122°55'0 0.0
2018-Apr-17 01:00N 49°10' W 122°55'0 0.0
2018-Apr-17 00:30N 49°10' W 122°55'0 0.0
2018-Apr-16 23:59N 49°10' W 122°55'0 0.0
2018-Apr-16 23:31N 49°10' W 122°55'2 3.6
2018-Apr-16 23:00N 49°10' W 122°58'1 1.3
2018-Apr-16 22:30N 49°09' W 122°59'3 5.6
2018-Apr-16 22:01N 49°08' W 123°03'3 5.4
2018-Apr-16 21:30N 49°07' W 123°06'3 5.0
2018-Apr-16 20:59N 49°07' W 123°10'2 4.1
2018-Apr-16 20:30N 49°08' W 123°13'2 3.8
2018-Apr-16 19:59N 49°07' W 123°16'2 3.5
2018-Apr-16 19:30N 49°06' W 123°18'2 3.4
2018-Apr-16 19:00N 49°07' W 123°20'4 7.9
2018-Apr-16 18:30N 49°11' W 123°22'4 7.9
2018-Apr-16 18:00N 49°15' W 123°24'4 7.3
2018-Apr-16 17:30N 49°18' W 123°26'4 7.2
2018-Apr-16 16:59N 49°22' W 123°26'3 6.9
2018-Apr-16 16:31N 49°25' W 123°27'4 7.6
2018-Apr-16 16:00N 49°29' W 123°28'3 5.2
2018-Apr-16 15:30N 49°32' W 123°29'0 0.1
2018-Apr-16 15:00N 49°31' W 123°29'0 0.7
2018-Apr-16 14:30N 49°31' W 123°29'1 1.1
2018-Apr-16 14:00N 49°31' W 123°28'0 0.7
2018-Apr-16 13:31N 49°30' W 123°28'2 3.7
2018-Apr-16 13:00N 49°29' W 123°28'2 3.7
2018-Apr-16 12:29N 49°27' W 123°28'2 3.3
2018-Apr-16 11:59N 49°25' W 123°26'2 2.7
2018-Apr-16 11:26N 49°25' W 123°24'1 1.6
2018-Apr-16 11:01N 49°25' W 123°24'1 1.1
2018-Apr-16 10:29N 49°24' W 123°24'1 2.7
2018-Apr-16 09:58N 49°25' W 123°23'1 3.0
2018-Apr-16 09:30N 49°26' W 123°21'1 2.7
2018-Apr-16 08:59N 49°25' W 123°18'1 2.1
2018-Apr-16 08:29N 49°24' W 123°18'1 2.3
2018-Apr-16 08:00N 49°23' W 123°18'1 1.9
2018-Apr-16 07:31N 49°22' W 123°18'1 1.5
2018-Apr-16 07:01N 49°22' W 123°18'1 1.7
2018-Apr-16 06:30N 49°21' W 123°18'2 3.5
2018-Apr-16 06:00N 49°19' W 123°18'3 5.1
2018-Apr-16 05:30N 49°16' W 123°18'2 3.5
2018-Apr-16 05:00N 49°15' W 123°16'1 1.0
2018-Apr-16 04:30N 49°15' W 123°15'0 0.0
2018-Apr-16 04:00N 49°15' W 123°15'0 0.1
2018-Apr-16 03:22N 49°15' W 123°15'0 0.0
2018-Apr-16 02:58N 49°15' W 123°15'0 0.0
2018-Apr-16 02:30N 49°15' W 123°15'0 0.0
2018-Apr-16 02:00N 49°15' W 123°15'0 0.0
2018-Apr-16 01:30N 49°15' W 123°15'0 0.0
2018-Apr-16 01:00N 49°15' W 123°15'0 0.0
2018-Apr-16 00:29N 49°15' W 123°15'0 0.1
2018-Apr-16 00:00N 49°15' W 123°15'2 3.0
2018-Apr-15 23:30N 49°14' W 123°18'4 6.9
2018-Apr-15 22:56N 49°11' W 123°18'3 7.1
2018-Apr-15 22:29N 49°07' W 123°19'2 3.2
2018-Apr-15 22:00N 49°07' W 123°17'4 7.2
2018-Apr-15 21:29N 49°07' W 123°11'4 8.4
2018-Apr-15 21:00N 49°07' W 123°05'4 9.1
2018-Apr-15 20:30N 49°09' W 122°59'0 0.7
2018-Apr-15 20:01N 49°10' W 122°58'3 6.4
2018-Apr-15 19:30N 49°08' W 123°03'3 5.6
2018-Apr-15 19:00N 49°07' W 123°06'3 5.2
2018-Apr-15 18:30N 49°07' W 123°10'1 1.7
2018-Apr-15 18:00N 49°07' W 123°11'0 0.0
2018-Apr-15 17:30N 49°07' W 123°11'0 0.0
2018-Apr-15 17:00N 49°07' W 123°11'0 0.0
2018-Apr-15 16:29N 49°07' W 123°11'0 0.0
2018-Apr-15 16:00N 49°07' W 123°11'0 0.0
2018-Apr-15 15:30N 49°07' W 123°11'0 0.0
2018-Apr-15 14:53N 49°07' W 123°11'2 4.2
2018-Apr-15 14:31N 49°07' W 123°09'5 9.3
2018-Apr-15 14:00N 49°09' W 123°03'4 8.5
2018-Apr-15 13:30N 49°10' W 122°56'1 1.5
2018-Apr-15 13:00N 49°10' W 122°55'0 0.0
2018-Apr-15 12:30N 49°10' W 122°55'0 0.0
2018-Apr-15 12:00N 49°10' W 122°55'0 0.0
2018-Apr-15 11:30N 49°10' W 122°55'0 0.0
2018-Apr-15 11:00N 49°10' W 122°55'0 0.0
2018-Apr-15 10:30N 49°10' W 122°55'0 0.0
2018-Apr-15 10:00N 49°10' W 122°55'0 0.0
2018-Apr-15 09:30N 49°10' W 122°55'0 0.0
2018-Apr-15 09:00N 49°10' W 122°55'0 0.0
2018-Apr-15 08:30N 49°10' W 122°55'0 0.0
2018-Apr-15 08:00N 49°10' W 122°55'0 0.0
2018-Apr-15 07:30N 49°10' W 122°55'0 0.0
2018-Apr-15 07:00N 49°10' W 122°55'2 3.3
2018-Apr-15 06:29N 49°09' W 122°58'2 4.0
2018-Apr-15 06:00N 49°09' W 123°01'3 5.9
2018-Apr-15 05:30N 49°07' W 123°05'3 5.4
2018-Apr-15 05:00N 49°07' W 123°08'3 5.3
2018-Apr-15 04:29N 49°08' W 123°12'3 5.5
2018-Apr-15 04:00N 49°07' W 123°16'2 4.6
2018-Apr-15 03:30N 49°07' W 123°20'4 9.0
2018-Apr-15 03:00N 49°12' W 123°18'4 7.8
2018-Apr-15 02:29N 49°16' W 123°18'1 1.7
2018-Apr-15 02:01N 49°17' W 123°18'2 3.7
2018-Apr-15 01:30N 49°18' W 123°20'4 7.9
2018-Apr-15 01:00N 49°20' W 123°26'4 6.9
2018-Apr-15 00:27N 49°24' W 123°25'3 7.3
2018-Apr-15 00:00N 49°27' W 123°28'4 7.8
2018-Apr-14 23:30N 49°30' W 123°28'1 2.0
2018-Apr-14 23:00N 49°31' W 123°29'0 0.7
2018-Apr-14 22:30N 49°31' W 123°29'3 5.1
2018-Apr-14 21:59N 49°29' W 123°28'1 1.8
2018-Apr-14 21:30N 49°28' W 123°29'0 0.2
2018-Apr-14 21:00N 49°28' W 123°29'1 1.1
2018-Apr-14 20:29N 49°28' W 123°28'3 6.6
2018-Apr-14 20:00N 49°31' W 123°29'0 0.0
2018-Apr-14 19:30N 49°31' W 123°29'0 0.7
2018-Apr-14 19:00N 49°31' W 123°29'1 2.9
2018-Apr-14 18:31N 49°30' W 123°28'2 4.0
2018-Apr-14 18:00N 49°28' W 123°29'0 0.3
2018-Apr-14 17:30N 49°28' W 123°28'0 0.0
2018-Apr-14 17:00N 49°28' W 123°28'2 4.4
2018-Apr-14 16:29N 49°30' W 123°28'1 2.5
2018-Apr-14 16:00N 49°31' W 123°29'0 0.5
2018-Apr-14 15:30N 49°31' W 123°29'0 0.1
2018-Apr-14 15:00N 49°31' W 123°29'0 0.9
2018-Apr-14 14:30N 49°31' W 123°29'2 4.2
2018-Apr-14 14:00N 49°29' W 123°28'3 5.1
2018-Apr-14 13:29N 49°26' W 123°27'2 5.0
2018-Apr-14 13:00N 49°24' W 123°25'  
Track history (hours):
 
Tides and Currents Weather Stations Pressure Air Temp Water Temp Dewpoint Dewpoint Depression Visibility Wind Speed Wind Dir Waves Ship Positions

Seaspan Protector

Last reported at 2018-Apr-24 12:30 UTC. Time now 2018-Apr-24 12:49 UTC.
Position N 50°51' W 127°12'.

Length 22 m; draft 3.2 m.

Type: Towing. MMSI: 316003677.

Date/timePositionNaut miles runAvg speedWind from/ knotsBaromVisibWave heightAir tempDewpointWater temp
2018-Apr-24 12:30N 50°51' W 127°12'1 2.7
2018-Apr-24 11:59N 50°51' W 127°14'1 2.8
2018-Apr-24 11:30N 50°52' W 127°16'1 2.9
2018-Apr-24 10:59N 50°52' W 127°19'1 2.7
2018-Apr-24 10:28N 50°53' W 127°21'1 1.9
2018-Apr-24 10:00N 50°52' W 127°22'2 3.7
2018-Apr-24 09:29N 50°50' W 127°20'2 3.6
2018-Apr-24 09:00N 50°49' W 127°17'2 3.5
2018-Apr-24 08:29N 50°49' W 127°15'1 3.1
2018-Apr-24 08:00N 50°50' W 127°13'1 2.8
2018-Apr-24 07:29N 50°51' W 127°15'1 2.1
2018-Apr-24 07:00N 50°51' W 127°16'1 1.8
2018-Apr-24 06:30N 50°52' W 127°16'2 3.2
2018-Apr-24 05:58N 50°53' W 127°19'2 3.5
2018-Apr-24 05:26N 50°53' W 127°22'2 4.4
2018-Apr-24 05:00N 50°54' W 127°24'2 4.8
2018-Apr-24 04:30N 50°56' W 127°27'2 4.1
2018-Apr-24 04:00N 50°57' W 127°29'2 4.5
2018-Apr-24 03:30N 50°59' W 127°32'3 4.9
2018-Apr-24 02:59N 51°00' W 127°36'2 5.0
2018-Apr-24 02:30N 51°02' W 127°38'3 5.4
2018-Apr-24 02:00N 51°03' W 127°42'2 4.7
2018-Apr-24 01:30N 51°05' W 127°44'2 4.1
2018-Apr-24 01:00N 51°07' W 127°46'1 2.6
2018-Apr-24 00:30N 51°08' W 127°48'2 4.2
2018-Apr-24 00:00N 51°06' W 127°45'3 6.6
2018-Apr-23 23:30N 51°04' W 127°41'3 6.1
2018-Apr-23 23:00N 51°02' W 127°38'3 6.6
2018-Apr-23 22:30N 50°59' W 127°35'3 6.7
2018-Apr-23 22:00N 50°58' W 127°30'3 6.8
2018-Apr-23 21:30N 50°56' W 127°26'4 7.1
2018-Apr-23 21:00N 50°53' W 127°22'4 7.0
2018-Apr-23 20:29N 50°51' W 127°17'3 6.9
2018-Apr-23 20:00N 50°48' W 127°14'4 7.2
2018-Apr-23 19:28N 50°46' W 127°09'13 7.4
2018-Apr-23 17:43N 50°40' W 126°51'2 6.5
2018-Apr-23 17:25N 50°39' W 126°48'2 4.7
2018-Apr-23 16:58N 50°37' W 126°46'10 6.5
2018-Apr-23 15:29N 50°31' W 126°35'4 7.1
2018-Apr-23 14:59N 50°30' W 126°29'41 7.8
2018-Apr-23 09:43N 50°20' W 125°27'1 6.1
2018-Apr-23 09:29N 50°19' W 125°25'4 7.6
2018-Apr-23 08:57N 50°16' W 125°23'3 7.1
2018-Apr-23 08:28N 50°12' W 125°22'3 6.9
2018-Apr-23 07:59N 50°09' W 125°21'3 6.6
2018-Apr-23 07:30N 50°07' W 125°18'3 5.2
2018-Apr-23 07:00N 50°05' W 125°15'2 4.6
2018-Apr-23 06:30N 50°03' W 125°14'2 4.1
2018-Apr-23 06:00N 50°01' W 125°12'1 2.0
2018-Apr-23 05:30N 49°60' W 125°12'3 5.1
2018-Apr-23 05:00N 49°58' W 125°09'2 4.3
2018-Apr-23 04:28N 49°57' W 125°06'2 3.9
2018-Apr-23 04:00N 49°56' W 125°04'2 3.1
2018-Apr-23 03:28N 49°55' W 125°02'2 3.1
2018-Apr-23 02:55N 49°54' W 124°60'1 3.4
2018-Apr-23 02:29N 49°53' W 124°58'2 3.3
2018-Apr-23 01:57N 49°52' W 124°55'2 3.4
2018-Apr-23 01:30N 49°51' W 124°53'2 3.3
2018-Apr-23 01:00N 49°51' W 124°51'2 3.2
2018-Apr-23 00:30N 49°51' W 124°48'2 2.9
2018-Apr-22 23:56N 49°50' W 124°46'1 2.8
2018-Apr-22 23:30N 49°50' W 124°44'1 2.9
2018-Apr-22 23:00N 49°50' W 124°42'2 3.2
2018-Apr-22 22:29N 49°49' W 124°39'2 4.1
2018-Apr-22 21:59N 49°49' W 124°36'4 5.7
2018-Apr-22 21:20N 49°47' W 124°31'3 7.2
2018-Apr-22 20:59N 49°46' W 124°28'2 5.0
2018-Apr-22 20:29N 49°44' W 124°25'2 3.9
2018-Apr-22 19:57N 49°43' W 124°22'2 3.9
2018-Apr-22 19:28N 49°42' W 124°20'2 4.4
2018-Apr-22 19:00N 49°41' W 124°17'5 6.2
2018-Apr-22 18:09N 49°37' W 124°12'2 6.5
2018-Apr-22 17:55N 49°36' W 124°11'10 6.0
2018-Apr-22 16:14N 49°28' W 124°01'2 6.0
2018-Apr-22 15:53N 49°26' W 123°58'10 6.1
2018-Apr-22 14:17N 49°20' W 123°47'2 5.7
2018-Apr-22 13:58N 49°19' W 123°44'3 5.4
2018-Apr-22 13:29N 49°17' W 123°41'9 5.1
2018-Apr-22 11:43N 49°12' W 123°30'2 4.7
2018-Apr-22 11:20N 49°11' W 123°28'2 4.8
2018-Apr-22 10:53N 49°10' W 123°26'5 5.0
2018-Apr-22 09:55N 49°06' W 123°20'4 5.3
2018-Apr-22 09:12N 49°08' W 123°15'2 4.6
2018-Apr-22 08:51N 49°07' W 123°12'2 4.7
2018-Apr-22 08:26N 49°07' W 123°10'2 4.4
2018-Apr-22 08:00N 49°07' W 123°07'2 4.4
2018-Apr-22 07:30N 49°08' W 123°04'2 4.1
2018-Apr-22 07:00N 49°09' W 123°01'2 4.2
2018-Apr-22 06:30N 49°09' W 122°58'0 0.3
2018-Apr-22 06:00N 49°10' W 122°58'0 0.0
2018-Apr-22 05:30N 49°10' W 122°58'0 0.1
2018-Apr-22 04:58N 49°09' W 122°58'0 0.2
2018-Apr-22 04:30N 49°10' W 122°58'0 0.0
2018-Apr-22 03:58N 49°10' W 122°58'2 3.5
2018-Apr-22 03:30N 49°10' W 122°56'0 0.3
2018-Apr-22 03:00N 49°10' W 122°55'0 0.0
2018-Apr-22 02:30N 49°10' W 122°55'2 3.7
2018-Apr-22 01:59N 49°09' W 122°58'3 6.9
2018-Apr-22 01:30N 49°08' W 123°03'3 5.2
2018-Apr-22 00:58N 49°07' W 123°07'3 6.1
2018-Apr-22 00:30N 49°07' W 123°11'1 1.0
2018-Apr-21 23:57N 49°07' W 123°11'0 0.0
2018-Apr-21 23:30N 49°07' W 123°11'0 0.0
2018-Apr-21 22:59N 49°07' W 123°11'0 0.0
2018-Apr-21 22:29N 49°07' W 123°11'4 9.3
2018-Apr-21 22:00N 49°07' W 123°05'611.7
2018-Apr-21 21:30N 49°10' W 122°56'1 1.6
2018-Apr-21 21:00N 49°10' W 122°55'0 0.0
2018-Apr-21 20:30N 49°10' W 122°55'0 0.0
2018-Apr-21 19:58N 49°10' W 122°55'0 0.0
2018-Apr-21 19:30N 49°10' W 122°55'0 0.0
2018-Apr-21 19:00N 49°10' W 122°55'0 0.0
2018-Apr-21 18:30N 49°10' W 122°55'0 0.0
2018-Apr-21 18:00N 49°10' W 122°55'0 0.0
2018-Apr-21 17:30N 49°10' W 122°55'0 0.0
2018-Apr-21 17:00N 49°10' W 122°55'0 0.0
2018-Apr-21 16:30N 49°10' W 122°55'0 0.0
2018-Apr-21 16:00N 49°10' W 122°55'0 0.0
2018-Apr-21 15:30N 49°10' W 122°55'0 0.0
2018-Apr-21 14:59N 49°10' W 122°55'0 0.0
2018-Apr-21 14:30N 49°10' W 122°55'0 0.0
2018-Apr-21 13:53N 49°10' W 122°55'0 0.0
2018-Apr-21 13:30N 49°10' W 122°55'0 0.0
2018-Apr-21 13:00N 49°10' W 122°55'0 0.0
2018-Apr-21 12:30N 49°10' W 122°55'0 0.0
2018-Apr-21 12:00N 49°10' W 122°55'0 0.0
2018-Apr-21 11:30N 49°10' W 122°55'0 0.0
2018-Apr-21 10:59N 49°10' W 122°55'0 0.0
2018-Apr-21 10:30N 49°10' W 122°55'0 0.0
2018-Apr-21 10:00N 49°10' W 122°55'0 0.0
2018-Apr-21 09:30N 49°10' W 122°55'0 0.0
2018-Apr-21 08:58N 49°10' W 122°55'0 0.0
2018-Apr-21 08:30N 49°10' W 122°55'0 0.0
2018-Apr-21 08:00N 49°10' W 122°55'0 0.0
2018-Apr-21 07:30N 49°10' W 122°55'0 0.0
2018-Apr-21 07:00N 49°10' W 122°55'0 0.0
2018-Apr-21 06:28N 49°10' W 122°55'0 0.0
2018-Apr-21 06:00N 49°10' W 122°55'0 0.0
2018-Apr-21 05:30N 49°10' W 122°55'0 0.0
2018-Apr-21 05:00N 49°10' W 122°55'0 0.0
2018-Apr-21 04:30N 49°10' W 122°55'0 0.0
2018-Apr-21 03:58N 49°10' W 122°55'0 0.0
2018-Apr-21 03:30N 49°10' W 122°55'0 0.0
2018-Apr-21 02:58N 49°10' W 122°55'0 0.0
2018-Apr-21 02:30N 49°10' W 122°55'0 0.0
2018-Apr-21 02:00N 49°10' W 122°55'0 0.0
2018-Apr-21 01:30N 49°10' W 122°55'0 0.0
2018-Apr-21 01:00N 49°10' W 122°55'0 0.0
2018-Apr-21 00:30N 49°10' W 122°55'0 0.0
2018-Apr-21 00:00N 49°10' W 122°55'0 0.0
2018-Apr-20 23:30N 49°10' W 122°55'0 0.0
2018-Apr-20 23:00N 49°10' W 122°55'0 0.0
2018-Apr-20 22:30N 49°10' W 122°55'0 0.0
2018-Apr-20 21:59N 49°10' W 122°55'0 0.0
2018-Apr-20 21:30N 49°10' W 122°55'0 0.0
2018-Apr-20 21:00N 49°10' W 122°55'0 0.0
2018-Apr-20 20:30N 49°10' W 122°55'0 0.0
2018-Apr-20 20:00N 49°10' W 122°55'0 0.0
2018-Apr-20 19:30N 49°10' W 122°55'0 0.0
2018-Apr-20 19:00N 49°10' W 122°55'0 0.0
2018-Apr-20 18:30N 49°10' W 122°55'0 0.0
2018-Apr-20 18:00N 49°10' W 122°55'0 0.0
2018-Apr-20 17:30N 49°10' W 122°55'0 0.0
2018-Apr-20 17:00N 49°10' W 122°55'0 0.0
2018-Apr-20 16:30N 49°10' W 122°55'0 0.0
2018-Apr-20 16:00N 49°10' W 122°55'0 0.0
2018-Apr-20 15:30N 49°10' W 122°55'0 0.0
2018-Apr-20 15:00N 49°10' W 122°55'0 0.0
2018-Apr-20 14:30N 49°10' W 122°55'0 0.0
2018-Apr-20 14:00N 49°10' W 122°55'0 0.0
2018-Apr-20 13:30N 49°10' W 122°55'0 0.0
2018-Apr-20 12:57N 49°10' W 122°55'0 0.0
2018-Apr-20 12:30N 49°10' W 122°55'0 0.0
2018-Apr-20 12:00N 49°10' W 122°55'0 0.0
2018-Apr-20 11:30N 49°10' W 122°55'0 0.0
2018-Apr-20 11:00N 49°10' W 122°55'0 0.0
2018-Apr-20 10:30N 49°10' W 122°55'0 0.0
2018-Apr-20 10:00N 49°10' W 122°55'0 0.0
2018-Apr-20 09:30N 49°10' W 122°55'0 0.0
2018-Apr-20 09:00N 49°10' W 122°55'0 0.0
2018-Apr-20 08:30N 49°10' W 122°55'0 0.0
2018-Apr-20 08:00N 49°10' W 122°55'0 0.1
2018-Apr-20 07:30N 49°10' W 122°55'0 0.1
2018-Apr-20 07:00N 49°10' W 122°55'0 0.0
2018-Apr-20 06:30N 49°10' W 122°55'0 0.0
2018-Apr-20 06:00N 49°10' W 122°55'0 0.0
2018-Apr-20 05:30N 49°10' W 122°55'0 0.0
2018-Apr-20 04:59N 49°10' W 122°55'0 0.0
2018-Apr-20 04:30N 49°10' W 122°55'0 0.0
2018-Apr-20 04:00N 49°10' W 122°55'0 0.0
2018-Apr-20 03:30N 49°10' W 122°55'0 0.0
2018-Apr-20 03:00N 49°10' W 122°55'0 0.0
2018-Apr-20 02:30N 49°10' W 122°55'0 0.0
2018-Apr-20 02:00N 49°10' W 122°55'0 0.0
2018-Apr-20 01:30N 49°10' W 122°55'0 0.0
2018-Apr-20 01:00N 49°10' W 122°55'0 0.0
2018-Apr-20 00:30N 49°10' W 122°55'0 0.0
2018-Apr-20 00:00N 49°10' W 122°55'0 0.0
2018-Apr-19 23:30N 49°10' W 122°55'0 0.0
2018-Apr-19 23:00N 49°10' W 122°55'0 0.0
2018-Apr-19 22:30N 49°10' W 122°55'0 0.0
2018-Apr-19 22:00N 49°10' W 122°55'0 0.0
2018-Apr-19 21:28N 49°10' W 122°55'0 0.0
2018-Apr-19 21:00N 49°10' W 122°55'0 0.0
2018-Apr-19 20:30N 49°10' W 122°55'0 0.0
2018-Apr-19 20:00N 49°10' W 122°55'0 0.0
2018-Apr-19 19:30N 49°10' W 122°55'0 0.0
2018-Apr-19 19:00N 49°10' W 122°55'0 0.0
2018-Apr-19 18:30N 49°10' W 122°55'0 0.0
2018-Apr-19 17:58N 49°10' W 122°55'0 0.0
2018-Apr-19 17:30N 49°10' W 122°55'0 0.0
2018-Apr-19 17:00N 49°10' W 122°55'0 0.0
2018-Apr-19 16:28N 49°10' W 122°55'0 0.0
2018-Apr-19 15:59N 49°10' W 122°55'0 0.0
2018-Apr-19 15:30N 49°10' W 122°55'0 0.0
2018-Apr-19 15:00N 49°10' W 122°55'0 0.0
2018-Apr-19 14:30N 49°10' W 122°55'0 0.0
2018-Apr-19 14:00N 49°10' W 122°55'0 0.0
2018-Apr-19 13:30N 49°10' W 122°55'0 0.0
2018-Apr-19 13:00N 49°10' W 122°55'0 0.0
2018-Apr-19 12:30N 49°10' W 122°55'0 0.0
2018-Apr-19 12:00N 49°10' W 122°55'0 0.0
2018-Apr-19 11:30N 49°10' W 122°55'0 0.0
2018-Apr-19 11:00N 49°10' W 122°55'0 0.0
2018-Apr-19 10:30N 49°10' W 122°55'0 0.0
2018-Apr-19 09:59N 49°10' W 122°55'0 0.0
2018-Apr-19 09:30N 49°10' W 122°55'0 0.0
2018-Apr-19 09:00N 49°10' W 122°55'0 0.0
2018-Apr-19 08:30N 49°10' W 122°55'0 0.0
2018-Apr-19 08:00N 49°10' W 122°55'0 0.0
2018-Apr-19 07:30N 49°10' W 122°55'0 0.0
2018-Apr-19 07:00N 49°10' W 122°55'0 0.0
2018-Apr-19 06:28N 49°10' W 122°55'0 0.0
2018-Apr-19 06:00N 49°10' W 122°55'0 0.0
2018-Apr-19 05:30N 49°10' W 122°55'0 0.0
2018-Apr-19 05:00N 49°10' W 122°55'0 0.0
2018-Apr-19 04:30N 49°10' W 122°55'0 0.0
2018-Apr-19 04:00N 49°10' W 122°55'0 0.0
2018-Apr-19 03:30N 49°10' W 122°55'0 0.0
2018-Apr-19 03:00N 49°10' W 122°55'0 0.0
2018-Apr-19 02:30N 49°10' W 122°55'0 0.0
2018-Apr-19 02:00N 49°10' W 122°55'0 0.0
2018-Apr-19 01:30N 49°10' W 122°55'0 0.0
2018-Apr-19 01:00N 49°10' W 122°55'0 0.0
2018-Apr-19 00:30N 49°10' W 122°55'0 0.0
2018-Apr-19 00:00N 49°10' W 122°55'0 0.0
2018-Apr-18 23:30N 49°10' W 122°55'0 0.0
2018-Apr-18 23:00N 49°10' W 122°55'0 0.0
2018-Apr-18 22:30N 49°10' W 122°55'0 0.0
2018-Apr-18 22:00N 49°10' W 122°55'0 0.0
2018-Apr-18 21:30N 49°10' W 122°55'0 0.0
2018-Apr-18 21:00N 49°10' W 122°55'0 0.1
2018-Apr-18 20:30N 49°10' W 122°55'0 0.1
2018-Apr-18 20:00N 49°10' W 122°55'0 0.0
2018-Apr-18 19:30N 49°10' W 122°55'0 0.0
2018-Apr-18 19:00N 49°10' W 122°55'0 0.0
2018-Apr-18 18:30N 49°10' W 122°55'0 0.0
2018-Apr-18 18:00N 49°10' W 122°55'0 0.0
2018-Apr-18 17:28N 49°10' W 122°55'0 0.0
2018-Apr-18 17:00N 49°10' W 122°55'0 0.0
2018-Apr-18 16:30N 49°10' W 122°55'0 0.0
2018-Apr-18 16:00N 49°10' W 122°55'0 0.0
2018-Apr-18 15:30N 49°10' W 122°55'0 0.0
2018-Apr-18 15:00N 49°10' W 122°55'0 0.0
2018-Apr-18 14:30N 49°10' W 122°55'0 0.0
2018-Apr-18 14:00N 49°10' W 122°55'0 0.0
2018-Apr-18 13:30N 49°10' W 122°55'0 0.0
2018-Apr-18 12:58N 49°10' W 122°55'0 0.0
2018-Apr-18 12:30N 49°10' W 122°55'0 0.0
2018-Apr-18 12:00N 49°10' W 122°55'0 0.0
2018-Apr-18 11:30N 49°10' W 122°55'0 0.0
2018-Apr-18 11:00N 49°10' W 122°55'0 0.0
2018-Apr-18 10:30N 49°10' W 122°55'0 0.0
2018-Apr-18 10:00N 49°10' W 122°55'0 0.0
2018-Apr-18 09:30N 49°10' W 122°55'0 0.0
2018-Apr-18 09:00N 49°10' W 122°55'0 0.0
2018-Apr-18 08:30N 49°10' W 122°55'0 0.0
2018-Apr-18 08:00N 49°10' W 122°55'0 0.0
2018-Apr-18 07:30N 49°10' W 122°55'0 0.0
2018-Apr-18 07:00N 49°10' W 122°55'0 0.0
2018-Apr-18 06:30N 49°10' W 122°55'0 0.0
2018-Apr-18 05:59N 49°10' W 122°55'0 0.0
2018-Apr-18 05:30N 49°10' W 122°55'0 0.0
2018-Apr-18 05:00N 49°10' W 122°55'0 0.0
2018-Apr-18 04:30N 49°10' W 122°55'1 2.2
2018-Apr-18 04:00N 49°10' W 122°57'0 0.0
2018-Apr-18 03:30N 49°10' W 122°57'0 0.0
2018-Apr-18 03:00N 49°10' W 122°57'0 0.0
2018-Apr-18 02:30N 49°10' W 122°57'0 0.4
2018-Apr-18 02:00N 49°09' W 122°57'3 5.7
2018-Apr-18 01:31N 49°09' W 123°01'3 5.1
2018-Apr-18 01:00N 49°07' W 123°04'2 5.0
2018-Apr-18 00:30N 49°06' W 123°08'3 5.4
2018-Apr-18 00:00N 49°07' W 123°12'3 6.7
2018-Apr-17 23:30N 49°07' W 123°17'3 6.6
2018-Apr-17 23:00N 49°06' W 123°22'3 6.6
2018-Apr-17 22:30N 49°08' W 123°26'4 7.6
2018-Apr-17 21:59N 49°09' W 123°32'4 8.2
2018-Apr-17 21:30N 49°11' W 123°38'1 0.1
2018-Apr-17 10:48N 49°11' W 123°36'8 3.8
2018-Apr-17 08:41N 49°08' W 123°25'2 4.0
2018-Apr-17 08:11N 49°07' W 123°23'1 4.7
2018-Apr-17 08:00N 49°06' W 123°21'3 5.1
2018-Apr-17 07:30N 49°06' W 123°18'4 8.7
2018-Apr-17 07:00N 49°07' W 123°11'5 9.1
2018-Apr-17 06:30N 49°08' W 123°04'4 8.1
2018-Apr-17 06:00N 49°09' W 122°58'1 2.1
2018-Apr-17 05:30N 49°10' W 122°57'0 0.0
2018-Apr-17 05:00N 49°10' W 122°57'0 0.0
2018-Apr-17 04:30N 49°10' W 122°57'0 0.0
2018-Apr-17 04:00N 49°10' W 122°57'0 0.0
2018-Apr-17 03:30N 49°10' W 122°57'1 1.2
2018-Apr-17 03:00N 49°09' W 122°58'1 1.2
2018-Apr-17 02:30N 49°09' W 122°57'0 0.3
2018-Apr-17 02:00N 49°10' W 122°57'1 2.2
2018-Apr-17 01:30N 49°10' W 122°55'0 0.0
2018-Apr-17 01:00N 49°10' W 122°55'0 0.0
2018-Apr-17 00:30N 49°10' W 122°55'0 0.0
2018-Apr-16 23:59N 49°10' W 122°55'0 0.0
2018-Apr-16 23:31N 49°10' W 122°55'2 3.6
2018-Apr-16 23:00N 49°10' W 122°58'1 1.3
2018-Apr-16 22:30N 49°09' W 122°59'3 5.6
2018-Apr-16 22:01N 49°08' W 123°03'3 5.4
2018-Apr-16 21:30N 49°07' W 123°06'3 5.0
2018-Apr-16 20:59N 49°07' W 123°10'2 4.1
2018-Apr-16 20:30N 49°08' W 123°13'2 3.8
2018-Apr-16 19:59N 49°07' W 123°16'2 3.5
2018-Apr-16 19:30N 49°06' W 123°18'2 3.4
2018-Apr-16 19:00N 49°07' W 123°20'4 7.9
2018-Apr-16 18:30N 49°11' W 123°22'4 7.9
2018-Apr-16 18:00N 49°15' W 123°24'4 7.3
2018-Apr-16 17:30N 49°18' W 123°26'4 7.2
2018-Apr-16 16:59N 49°22' W 123°26'3 6.9
2018-Apr-16 16:31N 49°25' W 123°27'4 7.6
2018-Apr-16 16:00N 49°29' W 123°28'3 5.2
2018-Apr-16 15:30N 49°32' W 123°29'0 0.1
2018-Apr-16 15:00N 49°31' W 123°29'0 0.7
2018-Apr-16 14:30N 49°31' W 123°29'1 1.1
2018-Apr-16 14:00N 49°31' W 123°28'0 0.7
2018-Apr-16 13:31N 49°30' W 123°28'2 3.7
2018-Apr-16 13:00N 49°29' W 123°28'2 3.7
2018-Apr-16 12:29N 49°27' W 123°28'2 3.3
2018-Apr-16 11:59N 49°25' W 123°26'2 2.7
2018-Apr-16 11:26N 49°25' W 123°24'1 1.6
2018-Apr-16 11:01N 49°25' W 123°24'1 1.1
2018-Apr-16 10:29N 49°24' W 123°24'1 2.7
2018-Apr-16 09:58N 49°25' W 123°23'1 3.0
2018-Apr-16 09:30N 49°26' W 123°21'1 2.7
2018-Apr-16 08:59N 49°25' W 123°18'1 2.1
2018-Apr-16 08:29N 49°24' W 123°18'1 2.3
2018-Apr-16 08:00N 49°23' W 123°18'1 1.9
2018-Apr-16 07:31N 49°22' W 123°18'1 1.5
2018-Apr-16 07:01N 49°22' W 123°18'1 1.7
2018-Apr-16 06:30N 49°21' W 123°18'2 3.5
2018-Apr-16 06:00N 49°19' W 123°18'3 5.1
2018-Apr-16 05:30N 49°16' W 123°18'2 3.5
2018-Apr-16 05:00N 49°15' W 123°16'1 1.0
2018-Apr-16 04:30N 49°15' W 123°15'0 0.0
2018-Apr-16 04:00N 49°15' W 123°15'0 0.1
2018-Apr-16 03:22N 49°15' W 123°15'0 0.0
2018-Apr-16 02:58N 49°15' W 123°15'0 0.0
2018-Apr-16 02:30N 49°15' W 123°15'0 0.0
2018-Apr-16 02:00N 49°15' W 123°15'0 0.0
2018-Apr-16 01:30N 49°15' W 123°15'0 0.0
2018-Apr-16 01:00N 49°15' W 123°15'0 0.0
2018-Apr-16 00:29N 49°15' W 123°15'0 0.1
2018-Apr-16 00:00N 49°15' W 123°15'2 3.0
2018-Apr-15 23:30N 49°14' W 123°18'4 6.9
2018-Apr-15 22:56N 49°11' W 123°18'3 7.1
2018-Apr-15 22:29N 49°07' W 123°19'2 3.2
2018-Apr-15 22:00N 49°07' W 123°17'4 7.2
2018-Apr-15 21:29N 49°07' W 123°11'4 8.4
2018-Apr-15 21:00N 49°07' W 123°05'4 9.1
2018-Apr-15 20:30N 49°09' W 122°59'0 0.7
2018-Apr-15 20:01N 49°10' W 122°58'3 6.4
2018-Apr-15 19:30N 49°08' W 123°03'3 5.6
2018-Apr-15 19:00N 49°07' W 123°06'3 5.2
2018-Apr-15 18:30N 49°07' W 123°10'1 1.7
2018-Apr-15 18:00N 49°07' W 123°11'0 0.0
2018-Apr-15 17:30N 49°07' W 123°11'0 0.0
2018-Apr-15 17:00N 49°07' W 123°11'0 0.0
2018-Apr-15 16:29N 49°07' W 123°11'0 0.0
2018-Apr-15 16:00N 49°07' W 123°11'0 0.0
2018-Apr-15 15:30N 49°07' W 123°11'0 0.0
2018-Apr-15 14:53N 49°07' W 123°11'2 4.2
2018-Apr-15 14:31N 49°07' W 123°09'5 9.3
2018-Apr-15 14:00N 49°09' W 123°03'4 8.5
2018-Apr-15 13:30N 49°10' W 122°56'1 1.5
2018-Apr-15 13:00N 49°10' W 122°55'0 0.0
2018-Apr-15 12:30N 49°10' W 122°55'0 0.0
2018-Apr-15 12:00N 49°10' W 122°55'0 0.0
2018-Apr-15 11:30N 49°10' W 122°55'0 0.0
2018-Apr-15 11:00N 49°10' W 122°55'0 0.0
2018-Apr-15 10:30N 49°10' W 122°55'0 0.0
2018-Apr-15 10:00N 49°10' W 122°55'0 0.0
2018-Apr-15 09:30N 49°10' W 122°55'0 0.0
2018-Apr-15 09:00N 49°10' W 122°55'0 0.0
2018-Apr-15 08:30N 49°10' W 122°55'0 0.0
2018-Apr-15 08:00N 49°10' W 122°55'0 0.0
2018-Apr-15 07:30N 49°10' W 122°55'0 0.0
2018-Apr-15 07:00N 49°10' W 122°55'2 3.3
2018-Apr-15 06:29N 49°09' W 122°58'2 4.0
2018-Apr-15 06:00N 49°09' W 123°01'3 5.9
2018-Apr-15 05:30N 49°07' W 123°05'3 5.4
2018-Apr-15 05:00N 49°07' W 123°08'3 5.3
2018-Apr-15 04:29N 49°08' W 123°12'3 5.5
2018-Apr-15 04:00N 49°07' W 123°16'2 4.6
2018-Apr-15 03:30N 49°07' W 123°20'4 9.0
2018-Apr-15 03:00N 49°12' W 123°18'4 7.8
2018-Apr-15 02:29N 49°16' W 123°18'1 1.7
2018-Apr-15 02:01N 49°17' W 123°18'2 3.7
2018-Apr-15 01:30N 49°18' W 123°20'4 7.9
2018-Apr-15 01:00N 49°20' W 123°26'4 6.9
2018-Apr-15 00:27N 49°24' W 123°25'3 7.3
2018-Apr-15 00:00N 49°27' W 123°28'4 7.8
2018-Apr-14 23:30N 49°30' W 123°28'1 2.0
2018-Apr-14 23:00N 49°31' W 123°29'0 0.7
2018-Apr-14 22:30N 49°31' W 123°29'3 5.1
2018-Apr-14 21:59N 49°29' W 123°28'1 1.8
2018-Apr-14 21:30N 49°28' W 123°29'0 0.2
2018-Apr-14 21:00N 49°28' W 123°29'1 1.1
2018-Apr-14 20:29N 49°28' W 123°28'3 6.6
2018-Apr-14 20:00N 49°31' W 123°29'0 0.0
2018-Apr-14 19:30N 49°31' W 123°29'0 0.7
2018-Apr-14 19:00N 49°31' W 123°29'1 2.9
2018-Apr-14 18:31N 49°30' W 123°28'2 4.0
2018-Apr-14 18:00N 49°28' W 123°29'0 0.3
2018-Apr-14 17:30N 49°28' W 123°28'0 0.0
2018-Apr-14 17:00N 49°28' W 123°28'2 4.4
2018-Apr-14 16:29N 49°30' W 123°28'1 2.5
2018-Apr-14 16:00N 49°31' W 123°29'0 0.5
2018-Apr-14 15:30N 49°31' W 123°29'0 0.1
2018-Apr-14 15:00N 49°31' W 123°29'0 0.9
2018-Apr-14 14:30N 49°31' W 123°29'2 4.2
2018-Apr-14 14:00N 49°29' W 123°28'3 5.1
2018-Apr-14 13:29N 49°26' W 123°27'2 5.0
2018-Apr-14 13:00N 49°24' W 123°25'  

Dump ship's entire track history